PN32 weather

Public forecast

Using degrees Fahrenheit for public forecast. Weather courtesy of forecast.io.

Closest aviation weather report (METAR) to Indiana Hospital Heliport

Closest report is Indiana County/Jimmy Stewart Fld/ Airport, 2.0 nm (3.7 km) NE. Retrieved 2020/08/11 23:35 UTC (6 minutes ago):

KIDI 112335Z AUTO 24007KT 10SM CLR 29/21 A3000 RMK A01

Closest aviation forecast (TAF) to Indiana Hospital Heliport

Closest forecast is John Murtha Johnstown Cambria County Airport, 22.3 nm (41.3 km) SE. Retrieved 2020/08/11 18:45 UTC (5 hours ago):

TAF KJST 111742Z 1118/1218 28008KT P6SM VCSH BKN050 FM120000 27004KT P6SM -SHRA OVC050 FM120600 26003KT 2SM BR BKN005 FM120900 26003KT 1/2SM FG BKN001 FM121300 32003KT 4SM BR BKN003 FM121400 35003KT P6SM OVC250